createdAt,value
2023-03-11T00:00:51.115Z,2.94
2023-03-11T00:03:23.139Z,2.87
2023-03-11T00:05:51.723Z,2.99
2023-03-11T00:08:23.448Z,3.04
2023-03-11T00:10:56.247Z,2.70
2023-03-11T00:13:24.589Z,2.90
2023-03-11T00:15:56.833Z,2.92
2023-03-11T00:18:31.385Z,2.72
2023-03-11T00:21:01.282Z,2.62
2023-03-11T00:23:30.212Z,2.47
2023-03-11T00:25:59.883Z,2.47
2023-03-11T00:28:27.989Z,2.55
2023-03-11T00:30:57.466Z,2.36
2023-03-11T00:33:26.280Z,2.70
2023-03-11T00:35:56.820Z,2.57
2023-03-11T00:38:24.853Z,2.41
2023-03-11T00:40:52.904Z,2.50
2023-03-11T00:43:21.506Z,2.78
2023-03-11T00:45:49.518Z,2.66
2023-03-11T00:48:18.925Z,2.96
2023-03-11T00:50:46.880Z,2.91
2023-03-11T00:53:14.829Z,2.76
2023-03-11T00:55:42.840Z,2.74
2023-03-11T00:58:13.768Z,2.89
2023-03-11T01:00:42.177Z,2.82
2023-03-11T01:03:12.433Z,2.83
2023-03-11T01:05:41.933Z,3.14
2023-03-11T01:08:12.650Z,3.02
2023-03-11T01:10:40.773Z,2.89
2023-03-11T01:13:12.342Z,3.17
2023-03-11T01:15:40.439Z,3.21
2023-03-11T01:18:08.544Z,2.82
2023-03-11T01:20:40.427Z,2.86
2023-03-11T01:23:10.910Z,2.79
2023-03-11T01:25:39.074Z,2.90
2023-03-11T01:28:08.407Z,3.05
2023-03-11T01:30:38.745Z,2.98
2023-03-11T01:33:08.485Z,2.92
2023-03-11T01:35:36.801Z,2.78
2023-03-11T01:38:04.728Z,2.85
2023-03-11T01:40:37.617Z,3.05
2023-03-11T01:43:27.808Z,2.96
2023-03-11T01:46:14.580Z,2.84
2023-03-11T01:48:47.773Z,2.78
2023-03-11T01:51:16.935Z,2.76
2023-03-11T01:53:45.322Z,2.78
2023-03-11T01:56:15.813Z,2.63
2023-03-11T01:58:49.963Z,2.78
2023-03-11T02:01:22.059Z,2.70
2023-03-11T02:03:50.956Z,2.82
2023-03-11T02:06:24.855Z,2.73
2023-03-11T02:08:53.813Z,2.76
2023-03-11T02:11:28.020Z,2.74
2023-03-11T02:14:01.156Z,2.61
2023-03-11T02:16:29.427Z,2.56
2023-03-11T02:19:01.434Z,2.51
2023-03-11T02:21:33.149Z,2.83
2023-03-11T02:24:12.601Z,2.46
2023-03-11T02:26:56.052Z,2.33
2023-03-11T02:29:26.956Z,2.07
2023-03-11T02:31:56.588Z,2.32
2023-03-11T02:34:28.558Z,2.22
2023-03-11T02:36:56.891Z,2.38
2023-03-11T02:39:32.557Z,2.13
2023-03-11T02:42:06.759Z,2.12
2023-03-11T02:44:35.525Z,2.31
2023-03-11T02:47:03.839Z,2.21
2023-03-11T02:49:33.449Z,2.23
2023-03-11T02:52:01.451Z,2.41
2023-03-11T02:54:29.426Z,2.43
2023-03-11T02:56:57.354Z,2.33
2023-03-11T02:59:26.878Z,2.31
2023-03-11T03:01:54.823Z,2.49
2023-03-11T03:04:22.879Z,2.15
2023-03-11T03:06:50.921Z,2.65
2023-03-11T03:09:18.951Z,2.69
2023-03-11T03:11:46.869Z,2.28
2023-03-11T03:14:14.896Z,2.71
2023-03-11T03:16:44.389Z,2.50
2023-03-11T03:19:12.496Z,2.72
2023-03-11T03:21:41.202Z,3.13
2023-03-11T03:24:09.477Z,3.07
2023-03-11T03:26:37.626Z,3.02
2023-03-11T03:29:06.720Z,3.08
2023-03-11T03:31:34.891Z,2.13
2023-03-11T03:34:04.218Z,2.45
2023-03-11T03:36:32.232Z,1.90
2023-03-11T03:39:01.089Z,2.03
2023-03-11T03:41:29.670Z,2.64
2023-03-11T03:43:58.295Z,2.77
2023-03-11T03:46:26.716Z,2.95
2023-03-11T03:48:54.595Z,2.56
2023-03-11T03:51:24.198Z,3.04
2023-03-11T03:53:52.120Z,3.13
2023-03-11T03:56:20.152Z,3.05
2023-03-11T03:58:48.403Z,3.22
2023-03-11T04:01:16.318Z,2.25
2023-03-11T04:03:44.433Z,2.76
2023-03-11T04:06:18.987Z,2.56
2023-03-11T04:08:48.968Z,2.53
2023-03-11T04:11:16.932Z,2.52
2023-03-11T04:13:45.378Z,2.58
2023-03-11T04:16:20.075Z,2.70
2023-03-11T04:18:49.094Z,2.30
2023-03-11T04:21:17.397Z,2.54
2023-03-11T04:23:45.315Z,1.97
2023-03-11T04:26:15.141Z,2.28
2023-03-11T04:28:43.393Z,2.20
2023-03-11T04:31:12.573Z,2.27
2023-03-11T04:33:40.493Z,2.18
2023-03-11T04:36:10.674Z,2.09
2023-03-11T04:38:38.561Z,2.16
2023-03-11T04:41:08.396Z,2.11
2023-03-11T04:43:37.746Z,2.05
2023-03-11T04:46:06.114Z,1.88
2023-03-11T04:48:34.071Z,2.19
2023-03-11T04:51:02.006Z,2.20
2023-03-11T04:53:29.910Z,1.96
2023-03-11T04:55:57.888Z,1.80
2023-03-11T04:58:25.937Z,1.36
2023-03-11T05:00:56.307Z,1.65
2023-03-11T05:03:24.766Z,2.05
2023-03-11T05:05:56.593Z,1.55
2023-03-11T05:08:24.626Z,1.75
2023-03-11T05:10:53.885Z,1.04
2023-03-11T05:13:22.293Z,1.74
2023-03-11T05:15:50.227Z,1.66
2023-03-11T05:18:19.534Z,1.71
2023-03-11T05:20:48.140Z,1.50
2023-03-11T05:23:16.044Z,2.04
2023-03-11T05:25:43.865Z,1.78
2023-03-11T05:28:12.364Z,1.50
2023-03-11T05:30:40.232Z,1.88
2023-03-11T05:33:08.259Z,2.07
2023-03-11T05:35:37.555Z,1.34
2023-03-11T05:38:05.476Z,1.88
2023-03-11T05:40:33.447Z,2.17
2023-03-11T05:43:01.499Z,1.80
2023-03-11T05:45:29.488Z,1.58
2023-03-11T05:47:57.552Z,2.02
2023-03-11T05:50:25.509Z,2.22
2023-03-11T05:52:54.814Z,2.23
2023-03-11T05:55:22.703Z,2.19
2023-03-11T05:57:52.778Z,2.05
2023-03-11T06:00:21.890Z,1.92
2023-03-11T06:02:49.850Z,1.49
2023-03-11T06:05:18.194Z,1.81
2023-03-11T06:07:46.385Z,1.08
2023-03-11T06:10:15.755Z,0.84
2023-03-11T06:12:43.725Z,1.20
2023-03-11T06:15:12.152Z,1.86
2023-03-11T06:17:40.047Z,0.88
2023-03-11T06:20:10.780Z,1.36
2023-03-11T06:22:40.306Z,1.50
2023-03-11T06:25:09.523Z,1.19
2023-03-11T06:27:38.851Z,1.13
2023-03-11T06:30:08.299Z,1.64
2023-03-11T06:32:37.319Z,1.89
2023-03-11T06:35:05.997Z,1.83
2023-03-11T06:37:37.661Z,1.65
2023-03-11T06:40:07.442Z,1.26
2023-03-11T06:42:35.602Z,1.86
2023-03-11T06:45:05.538Z,1.70
2023-03-11T06:47:33.805Z,2.01
2023-03-11T06:50:06.156Z,2.22
2023-03-11T06:52:34.634Z,1.97
2023-03-11T06:55:04.679Z,1.75
2023-03-11T06:57:33.651Z,1.38
2023-03-11T07:00:01.799Z,1.38
2023-03-11T07:02:31.189Z,1.89
2023-03-11T07:04:59.157Z,1.79
2023-03-11T07:07:27.016Z,1.77
2023-03-11T07:09:57.688Z,1.73
2023-03-11T07:12:25.766Z,1.92
2023-03-11T07:14:57.160Z,1.68
2023-03-11T07:17:26.682Z,2.04
2023-03-11T07:19:56.003Z,2.29
2023-03-11T07:22:23.952Z,2.36
2023-03-11T07:24:52.076Z,2.80
2023-03-11T07:27:20.012Z,3.11
2023-03-11T07:29:48.132Z,3.59
2023-03-11T07:32:16.591Z,4.12
2023-03-11T07:34:44.744Z,4.46
2023-03-11T07:37:14.310Z,4.35
2023-03-11T07:39:42.695Z,4.69
2023-03-11T07:42:10.666Z,4.82
2023-03-11T07:44:38.684Z,5.39
2023-03-11T07:47:07.837Z,5.50
2023-03-11T07:49:35.692Z,4.98
2023-03-11T07:52:03.599Z,5.69
2023-03-11T07:54:32.907Z,5.89
2023-03-11T07:57:01.182Z,5.74
2023-03-11T07:59:29.137Z,6.88
2023-03-11T08:01:57.119Z,7.22
2023-03-11T08:04:25.074Z,6.93
2023-03-11T08:06:53.009Z,9.43
2023-03-11T08:09:20.918Z,9.75
2023-03-11T08:11:50.200Z,9.32
2023-03-11T08:14:18.539Z,8.85
2023-03-11T08:16:46.493Z,9.06
2023-03-11T08:19:15.342Z,8.92
2023-03-11T08:21:43.356Z,9.69
2023-03-11T08:24:13.968Z,9.23
2023-03-11T08:26:43.011Z,10.44
2023-03-11T08:29:12.462Z,9.79
2023-03-11T08:31:40.490Z,10.69
2023-03-11T08:34:12.248Z,11.81
2023-03-11T08:36:40.422Z,11.02
2023-03-11T08:39:08.613Z,12.50
2023-03-11T08:41:36.926Z,13.52
2023-03-11T08:44:05.012Z,11.10
2023-03-11T08:46:37.336Z,13.11
2023-03-11T08:49:07.203Z,12.45
2023-03-11T08:51:36.660Z,12.32
2023-03-11T08:54:05.782Z,11.80
2023-03-11T08:56:33.717Z,11.85
2023-03-11T08:59:01.685Z,13.21
2023-03-11T09:01:30.171Z,10.74
2023-03-11T09:03:59.529Z,12.22
2023-03-11T09:06:30.396Z,12.76
2023-03-11T09:08:58.744Z,13.67
2023-03-11T09:11:27.278Z,13.13
2023-03-11T09:13:55.481Z,13.50
2023-03-11T09:16:25.598Z,12.65
2023-03-11T09:18:53.618Z,12.84
2023-03-11T09:21:23.419Z,14.02
2023-03-11T09:23:51.321Z,14.62
2023-03-11T09:26:19.297Z,13.84
2023-03-11T09:28:49.279Z,14.56
2023-03-11T09:31:17.816Z,13.62
2023-03-11T09:33:47.892Z,14.34
2023-03-11T09:36:18.429Z,13.68
2023-03-11T09:38:48.855Z,13.60
2023-03-11T09:41:30.648Z,13.82
2023-03-11T09:44:19.629Z,12.34
2023-03-11T09:47:35.218Z,12.41
2023-03-11T09:50:27.575Z,15.12
2023-03-11T09:53:11.780Z,13.43
2023-03-11T09:55:47.126Z,13.83
2023-03-11T09:58:28.468Z,13.38
2023-03-11T10:00:57.563Z,14.93
2023-03-11T10:03:34.413Z,13.64
2023-03-11T10:06:25.510Z,13.50
2023-03-11T10:09:06.045Z,13.34
2023-03-11T10:11:57.233Z,13.83
2023-03-11T10:14:54.339Z,13.23
2023-03-11T10:17:49.700Z,13.03
2023-03-11T10:20:27.603Z,12.71
2023-03-11T10:23:10.460Z,13.78
2023-03-11T10:25:58.089Z,12.30
2023-03-11T10:28:36.517Z,13.68
2023-03-11T10:31:20.259Z,11.96
2023-03-11T10:33:55.939Z,12.06
2023-03-11T10:36:36.054Z,11.50
2023-03-11T10:39:07.499Z,10.95
2023-03-11T10:41:44.828Z,11.25
2023-03-11T10:44:20.240Z,10.25
2023-03-11T10:46:48.148Z,12.92
2023-03-11T10:49:18.511Z,12.94
2023-03-11T10:51:49.847Z,11.63
2023-03-11T10:54:29.373Z,11.75
2023-03-11T10:57:00.356Z,10.99
2023-03-11T10:59:34.130Z,11.38
2023-03-11T11:02:05.424Z,9.70
2023-03-11T11:04:40.541Z,10.23
2023-03-11T11:07:31.675Z,11.09
2023-03-11T11:10:17.913Z,11.10
2023-03-11T11:12:57.818Z,10.85
2023-03-11T11:15:31.055Z,11.19
2023-03-11T11:18:03.802Z,12.12
2023-03-11T11:20:34.349Z,11.79
2023-03-11T11:23:05.159Z,12.09
2023-03-11T11:25:36.418Z,12.07
2023-03-11T11:28:18.297Z,12.66
2023-03-11T11:30:57.750Z,11.03
2023-03-11T11:33:30.381Z,11.26
2023-03-11T11:36:03.923Z,12.54
2023-03-11T11:38:34.727Z,11.91
2023-03-11T11:41:05.940Z,13.20
2023-03-11T11:43:48.026Z,11.33
2023-03-11T11:46:27.084Z,12.62
2023-03-11T11:49:12.716Z,12.63
2023-03-11T11:51:49.071Z,13.52
2023-03-11T11:54:25.606Z,12.67
2023-03-11T11:56:56.032Z,13.27
2023-03-11T11:59:25.839Z,12.85
2023-03-11T12:02:06.194Z,13.11
2023-03-11T12:04:54.678Z,13.40
2023-03-11T12:07:53.267Z,12.53
2023-03-11T12:10:29.952Z,13.69
2023-03-11T12:13:43.548Z,13.20
2023-03-11T12:16:29.455Z,13.25
2023-03-11T12:19:08.303Z,13.09
2023-03-11T12:22:01.345Z,14.60
2023-03-11T12:24:52.327Z,13.01
2023-03-11T12:27:26.552Z,13.93
2023-03-11T12:30:00.872Z,14.17
2023-03-11T12:32:35.896Z,15.15
2023-03-11T12:35:19.740Z,14.83
2023-03-11T12:37:57.569Z,14.68
2023-03-11T12:41:00.570Z,14.58
2023-03-11T12:44:09.440Z,14.62
2023-03-11T12:47:03.835Z,15.88
2023-03-11T12:49:33.496Z,15.89
2023-03-11T12:52:23.362Z,13.68
2023-03-11T12:55:39.914Z,14.14
2023-03-11T12:59:01.873Z,13.02
2023-03-11T13:01:50.430Z,13.36
2023-03-11T13:04:55.850Z,12.81
2023-03-11T13:07:43.497Z,13.36
2023-03-11T13:10:20.665Z,12.09
2023-03-11T13:12:52.523Z,11.57
2023-03-11T13:15:35.653Z,12.89
2023-03-11T13:18:18.526Z,13.80
2023-03-11T13:20:59.651Z,13.15
2023-03-11T13:23:38.265Z,13.56
2023-03-11T13:26:41.596Z,14.11
2023-03-11T13:29:46.787Z,14.80
2023-03-11T13:32:41.934Z,14.65
2023-03-11T13:35:34.013Z,15.03
2023-03-11T13:38:42.346Z,14.23
2023-03-11T13:41:18.565Z,14.66
2023-03-11T13:43:50.110Z,14.01
2023-03-11T13:46:32.485Z,13.50
2023-03-11T13:49:07.844Z,12.34
2023-03-11T13:51:44.148Z,11.78
2023-03-11T13:54:39.147Z,12.86
2023-03-11T13:57:16.284Z,12.22
2023-03-11T13:59:44.172Z,12.05
2023-03-11T14:02:21.620Z,12.17
2023-03-11T14:04:54.262Z,12.59
2023-03-11T14:07:29.289Z,12.54
2023-03-11T14:10:25.759Z,11.94
2023-03-11T14:13:06.860Z,12.55
2023-03-11T14:15:47.229Z,12.98
2023-03-11T14:18:41.188Z,13.15
2023-03-11T14:21:16.169Z,12.23
2023-03-11T14:23:48.504Z,12.97
2023-03-11T14:26:21.062Z,12.08
2023-03-11T14:28:53.696Z,11.84
2023-03-11T14:31:31.971Z,12.28
2023-03-11T14:34:06.790Z,10.69
2023-03-11T14:36:45.916Z,10.97
2023-03-11T14:39:30.806Z,10.34
2023-03-11T14:42:07.336Z,9.71
2023-03-11T14:44:41.644Z,9.08
2023-03-11T14:47:18.389Z,8.96
2023-03-11T14:49:51.951Z,8.50
2023-03-11T14:52:28.637Z,8.88
2023-03-11T14:55:00.384Z,8.49
2023-03-11T14:57:39.115Z,8.53
2023-03-11T15:00:17.023Z,8.28
2023-03-11T15:03:12.792Z,8.53
2023-03-11T15:05:49.189Z,8.72
2023-03-11T15:08:20.724Z,8.79
2023-03-11T15:11:25.510Z,8.92
2023-03-11T15:13:54.472Z,8.78
2023-03-11T15:16:35.787Z,8.69
2023-03-11T15:19:24.614Z,8.53
2023-03-11T15:21:56.498Z,8.05
2023-03-11T15:24:30.018Z,8.34
2023-03-11T15:27:02.516Z,8.10
2023-03-11T15:29:32.571Z,8.21
2023-03-11T15:32:00.739Z,8.78
2023-03-11T15:34:32.294Z,8.56
2023-03-11T15:37:06.347Z,8.71
2023-03-11T15:39:48.523Z,8.78
2023-03-11T15:42:22.827Z,8.82
2023-03-11T15:45:09.262Z,8.41
2023-03-11T15:47:39.652Z,8.25
2023-03-11T15:50:24.799Z,8.01
2023-03-11T15:52:58.000Z,8.24
2023-03-11T15:55:28.849Z,8.35
2023-03-11T15:58:06.328Z,8.09
2023-03-11T16:00:36.171Z,7.81
2023-03-11T16:03:04.803Z,8.02
2023-03-11T16:05:32.875Z,8.31
2023-03-11T16:08:02.318Z,8.40
2023-03-11T16:10:32.353Z,7.88
2023-03-11T16:13:00.294Z,8.16
2023-03-11T16:15:34.465Z,8.05
2023-03-11T16:18:05.627Z,8.08
2023-03-11T16:20:39.773Z,7.71
2023-03-11T16:23:16.297Z,8.27
2023-03-11T16:25:45.312Z,7.56
2023-03-11T16:28:16.554Z,7.79
2023-03-11T16:30:45.511Z,7.68
2023-03-11T16:33:13.489Z,7.69
2023-03-11T16:35:41.547Z,7.76
2023-03-11T16:38:11.254Z,7.74
2023-03-11T16:40:39.369Z,7.86
2023-03-11T16:43:12.736Z,7.93
2023-03-11T16:45:41.152Z,7.66
2023-03-11T16:48:15.479Z,7.76
2023-03-11T16:50:43.418Z,7.97
2023-03-11T16:53:14.096Z,8.18
2023-03-11T16:55:42.123Z,8.36
2023-03-11T16:58:10.112Z,7.99
2023-03-11T17:00:38.400Z,8.28
2023-03-11T17:03:09.681Z,7.60
2023-03-11T17:05:37.702Z,7.53
2023-03-11T17:08:06.255Z,7.65
2023-03-11T17:10:40.628Z,7.96
2023-03-11T17:13:09.538Z,7.86
2023-03-11T17:15:38.223Z,7.61
2023-03-11T17:18:06.541Z,7.63
2023-03-11T17:20:34.637Z,7.46
2023-03-11T17:23:02.797Z,7.26
2023-03-11T17:25:30.698Z,7.21
2023-03-11T17:28:02.228Z,7.24
2023-03-11T17:30:36.861Z,7.32
2023-03-11T17:33:05.766Z,7.11
2023-03-11T17:35:33.830Z,6.91
2023-03-11T17:38:01.962Z,6.97
2023-03-11T17:40:31.621Z,6.79
2023-03-11T17:43:01.443Z,6.83
2023-03-11T17:45:29.683Z,7.08
2023-03-11T17:47:57.633Z,6.94
2023-03-11T17:50:26.427Z,6.55
2023-03-11T17:52:56.437Z,6.46
2023-03-11T17:55:24.306Z,6.30
2023-03-11T17:57:53.902Z,6.43
2023-03-11T18:00:23.908Z,6.44
2023-03-11T18:02:52.501Z,6.30
2023-03-11T18:05:27.614Z,6.73
2023-03-11T18:07:57.887Z,6.75
2023-03-11T18:10:25.771Z,6.97
2023-03-11T18:12:53.598Z,7.07
2023-03-11T18:15:24.396Z,6.91
2023-03-11T18:17:52.249Z,6.82
2023-03-11T18:20:20.369Z,6.85
2023-03-11T18:22:48.242Z,7.10
2023-03-11T18:25:16.226Z,6.94
2023-03-11T18:27:45.382Z,6.80
2023-03-11T18:30:14.836Z,7.06
2023-03-11T18:32:44.806Z,6.86
2023-03-11T18:35:14.084Z,6.85
2023-03-11T18:37:44.253Z,6.45
2023-03-11T18:40:13.865Z,6.51
2023-03-11T18:42:41.728Z,6.05
2023-03-11T18:45:12.183Z,6.13
2023-03-11T18:47:39.970Z,6.12
2023-03-11T18:50:11.427Z,5.94
2023-03-11T18:52:39.816Z,5.47
2023-03-11T18:55:08.407Z,6.04
2023-03-11T18:57:36.334Z,6.02
2023-03-11T19:00:05.409Z,5.78
2023-03-11T19:02:33.437Z,6.04
2023-03-11T19:05:01.383Z,6.08
2023-03-11T19:07:30.789Z,5.95
2023-03-11T19:09:58.719Z,5.58
2023-03-11T19:12:29.214Z,5.85
2023-03-11T19:14:57.135Z,5.54
2023-03-11T19:17:25.015Z,5.31
2023-03-11T19:19:53.014Z,5.37
2023-03-11T19:22:20.890Z,4.75
2023-03-11T19:24:50.317Z,5.34
2023-03-11T19:27:18.153Z,5.63
2023-03-11T19:29:46.058Z,5.57
2023-03-11T19:32:13.980Z,5.73
2023-03-11T19:34:41.973Z,5.32
2023-03-11T19:37:09.897Z,5.60
2023-03-11T19:39:37.758Z,5.41
2023-03-11T19:42:07.099Z,5.28
2023-03-11T19:44:34.875Z,4.84
2023-03-11T19:47:02.789Z,5.14
2023-03-11T19:49:30.746Z,5.32
2023-03-11T19:51:58.686Z,5.48
2023-03-11T19:54:26.666Z,5.53
2023-03-11T19:56:54.531Z,5.67
2023-03-11T19:59:23.930Z,5.78
2023-03-11T20:01:51.881Z,5.71
2023-03-11T20:04:20.148Z,5.21
2023-03-11T20:06:48.195Z,5.57
2023-03-11T20:09:16.764Z,5.30
2023-03-11T20:11:45.949Z,5.30
2023-03-11T20:14:14.495Z,5.52
2023-03-11T20:16:44.236Z,5.95
2023-03-11T20:19:12.160Z,5.95
2023-03-11T20:21:40.891Z,5.84
2023-03-11T20:24:10.565Z,5.74
2023-03-11T20:26:39.312Z,6.00
2023-03-11T20:29:07.411Z,5.96
2023-03-11T20:31:36.401Z,5.65
2023-03-11T20:34:06.107Z,5.93
2023-03-11T20:36:34.831Z,5.58
2023-03-11T20:39:03.562Z,5.57
2023-03-11T20:41:37.367Z,5.89
2023-03-11T20:44:08.900Z,5.62
2023-03-11T20:46:40.019Z,5.57
2023-03-11T20:49:09.565Z,5.38
2023-03-11T20:51:40.262Z,5.16
2023-03-11T20:54:09.339Z,5.47
2023-03-11T20:56:37.313Z,4.98
2023-03-11T20:59:07.451Z,5.03
2023-03-11T21:01:36.212Z,5.10
2023-03-11T21:04:05.974Z,5.36
2023-03-11T21:06:39.111Z,5.34
2023-03-11T21:09:11.415Z,5.28
2023-03-11T21:11:39.702Z,5.28
2023-03-11T21:14:08.493Z,5.20
2023-03-11T21:16:37.081Z,5.29
2023-03-11T21:19:08.125Z,5.29
2023-03-11T21:21:37.715Z,5.05
2023-03-11T21:24:06.869Z,5.17
2023-03-11T21:26:36.971Z,4.92
2023-03-11T21:29:05.478Z,5.02
2023-03-11T21:31:34.455Z,4.95
2023-03-11T21:34:02.478Z,5.00
2023-03-11T21:36:31.186Z,4.78
2023-03-11T21:39:03.422Z,4.81
2023-03-11T21:41:32.195Z,4.82
2023-03-11T21:44:00.478Z,4.73
2023-03-11T21:46:32.084Z,4.61
2023-03-11T21:49:01.269Z,4.48
2023-03-11T21:51:30.293Z,4.60
2023-03-11T21:53:59.242Z,4.57
2023-03-11T21:56:30.015Z,4.50
2023-03-11T21:58:58.203Z,4.60
2023-03-11T22:01:26.338Z,4.30
2023-03-11T22:03:55.366Z,4.00
2023-03-11T22:06:25.605Z,3.93
2023-03-11T22:08:53.779Z,4.20
2023-03-11T22:11:21.694Z,4.25
2023-03-11T22:13:53.905Z,4.20
2023-03-11T22:16:23.484Z,4.40
2023-03-11T22:18:52.794Z,4.25
2023-03-11T22:21:21.914Z,4.06
2023-03-11T22:23:49.975Z,3.98
2023-03-11T22:26:17.831Z,4.40
2023-03-11T22:28:45.704Z,4.59
2023-03-11T22:31:18.493Z,4.84
2023-03-11T22:33:46.977Z,4.46
2023-03-11T22:36:15.033Z,4.34
2023-03-11T22:38:44.573Z,4.60
2023-03-11T22:41:14.044Z,4.45
2023-03-11T22:43:41.948Z,4.87
2023-03-11T22:46:10.022Z,4.38
2023-03-11T22:48:42.580Z,4.64
2023-03-11T22:51:10.461Z,4.23
2023-03-11T22:53:38.318Z,4.29
2023-03-11T22:56:12.144Z,4.04
2023-03-11T22:58:40.495Z,4.60
2023-03-11T23:01:08.942Z,4.28
2023-03-11T23:03:39.489Z,4.08
2023-03-11T23:06:13.454Z,4.32
2023-03-11T23:08:41.381Z,4.60
2023-03-11T23:11:15.750Z,4.62
2023-03-11T23:13:46.274Z,4.89
2023-03-11T23:16:17.445Z,4.81
2023-03-11T23:18:48.615Z,4.56
2023-03-11T23:21:18.715Z,4.87
2023-03-11T23:23:49.852Z,4.83
2023-03-11T23:26:19.170Z,4.94
2023-03-11T23:28:51.125Z,4.92
2023-03-11T23:31:22.548Z,4.73
2023-03-11T23:33:52.320Z,4.79
2023-03-11T23:36:23.626Z,4.94
2023-03-11T23:38:51.840Z,5.06
2023-03-11T23:41:23.618Z,5.09
2023-03-11T23:43:51.955Z,5.01
2023-03-11T23:46:20.131Z,4.99
2023-03-11T23:48:52.309Z,5.07
2023-03-11T23:51:20.238Z,4.97
2023-03-11T23:53:51.367Z,4.75
2023-03-11T23:56:20.229Z,5.01
2023-03-11T23:58:48.427Z,5.01
